sensor_id;sensor_type;location;lat;lon;timestamp;P1;durP1;ratioP1;P2;durP2;ratioP2
72427;SDS011;60419;48.880;18.036;2022-09-03T00:01:13;2.63;;;1.35;;
72427;SDS011;60419;48.880;18.036;2022-09-03T00:04:05;4.95;;;1.90;;
72427;SDS011;60419;48.880;18.036;2022-09-03T00:07:07;4.65;;;1.58;;
72427;SDS011;60419;48.880;18.036;2022-09-03T00:10:07;3.97;;;1.65;;
72427;SDS011;60419;48.880;18.036;2022-09-03T00:12:58;5.68;;;2.35;;
72427;SDS011;60419;48.880;18.036;2022-09-03T00:15:46;5.82;;;1.60;;
72427;SDS011;60419;48.880;18.036;2022-09-03T00:18:34;3.58;;;1.70;;
72427;SDS011;60419;48.880;18.036;2022-09-03T00:21:36;4.03;;;1.67;;
72427;SDS011;60419;48.880;18.036;2022-09-03T00:24:28;3.90;;;1.70;;
72427;SDS011;60419;48.880;18.036;2022-09-03T00:27:19;3.92;;;1.73;;
72427;SDS011;60419;48.880;18.036;2022-09-03T00:30:09;4.70;;;1.77;;
72427;SDS011;60419;48.880;18.036;2022-09-03T00:33:03;7.85;;;2.33;;
72427;SDS011;60419;48.880;18.036;2022-09-03T00:36:02;6.35;;;1.90;;
72427;SDS011;60419;48.880;18.036;2022-09-03T00:38:54;4.78;;;1.92;;
72427;SDS011;60419;48.880;18.036;2022-09-03T00:57:43;5.80;;;2.07;;
72427;SDS011;60419;48.880;18.036;2022-09-03T01:00:36;5.57;;;1.95;;
72427;SDS011;60419;48.880;18.036;2022-09-03T01:25:44;3.10;;;1.83;;
72427;SDS011;60419;48.880;18.036;2022-09-03T01:31:28;4.18;;;1.95;;
72427;SDS011;60419;48.880;18.036;2022-09-03T01:50:54;4.50;;;2.13;;
72427;SDS011;60419;48.880;18.036;2022-09-03T02:02:54;4.18;;;2.40;;
72427;SDS011;60419;48.880;18.036;2022-09-03T02:05:39;3.80;;;1.80;;
72427;SDS011;60419;48.880;18.036;2022-09-03T02:08:27;5.97;;;2.08;;
72427;SDS011;60419;48.880;18.036;2022-09-03T02:11:13;5.05;;;1.85;;
72427;SDS011;60419;48.880;18.036;2022-09-03T02:13:58;6.53;;;2.13;;
72427;SDS011;60419;48.880;18.036;2022-09-03T02:16:44;4.53;;;2.00;;
72427;SDS011;60419;48.880;18.036;2022-09-03T02:19:30;5.20;;;2.00;;
72427;SDS011;60419;48.880;18.036;2022-09-03T02:22:18;6.93;;;2.10;;
72427;SDS011;60419;48.880;18.036;2022-09-03T02:25:04;6.57;;;2.00;;
72427;SDS011;60419;48.880;18.036;2022-09-03T02:27:50;4.88;;;2.00;;
72427;SDS011;60419;48.880;18.036;2022-09-03T02:30:36;4.97;;;2.50;;
72427;SDS011;60419;48.880;18.036;2022-09-03T02:33:22;4.70;;;2.10;;
72427;SDS011;60419;48.880;18.036;2022-09-03T02:36:09;5.97;;;2.08;;
72427;SDS011;60419;48.880;18.036;2022-09-03T02:38:56;4.40;;;2.20;;
72427;SDS011;60419;48.880;18.036;2022-09-03T02:41:41;5.75;;;2.20;;
72427;SDS011;60419;48.880;18.036;2022-09-03T02:44:29;5.95;;;2.03;;
72427;SDS011;60419;48.880;18.036;2022-09-03T02:47:17;4.10;;;2.20;;
72427;SDS011;60419;48.880;18.036;2022-09-03T02:50:04;4.38;;;2.17;;
72427;SDS011;60419;48.880;18.036;2022-09-03T02:52:51;4.00;;;2.08;;
72427;SDS011;60419;48.880;18.036;2022-09-03T02:55:36;5.22;;;2.15;;
72427;SDS011;60419;48.880;18.036;2022-09-03T02:58:22;5.75;;;2.30;;
72427;SDS011;60419;48.880;18.036;2022-09-03T03:01:07;4.53;;;2.20;;
72427;SDS011;60419;48.880;18.036;2022-09-03T03:03:52;5.38;;;2.38;;
72427;SDS011;60419;48.880;18.036;2022-09-03T03:06:38;4.40;;;2.08;;
72427;SDS011;60419;48.880;18.036;2022-09-03T03:09:23;4.43;;;2.40;;
72427;SDS011;60419;48.880;18.036;2022-09-03T03:12:09;5.03;;;2.53;;
72427;SDS011;60419;48.880;18.036;2022-09-03T03:14:55;6.20;;;2.38;;
72427;SDS011;60419;48.880;18.036;2022-09-03T03:17:40;4.43;;;2.40;;
72427;SDS011;60419;48.880;18.036;2022-09-03T03:20:25;6.20;;;2.60;;
72427;SDS011;60419;48.880;18.036;2022-09-03T03:23:11;5.07;;;2.40;;
72427;SDS011;60419;48.880;18.036;2022-09-03T03:25:59;6.28;;;2.72;;
72427;SDS011;60419;48.880;18.036;2022-09-03T03:28:46;4.85;;;2.22;;
72427;SDS011;60419;48.880;18.036;2022-09-03T03:31:32;5.25;;;2.28;;
72427;SDS011;60419;48.880;18.036;2022-09-03T03:34:18;5.30;;;2.30;;
72427;SDS011;60419;48.880;18.036;2022-09-03T03:37:03;6.97;;;2.72;;
72427;SDS011;60419;48.880;18.036;2022-09-03T03:39:49;3.65;;;2.17;;
72427;SDS011;60419;48.880;18.036;2022-09-03T03:42:35;8.73;;;3.28;;
72427;SDS011;60419;48.880;18.036;2022-09-03T03:45:20;7.20;;;2.28;;
72427;SDS011;60419;48.880;18.036;2022-09-03T03:48:06;4.28;;;2.30;;
72427;SDS011;60419;48.880;18.036;2022-09-03T03:50:51;5.97;;;2.70;;
72427;SDS011;60419;48.880;18.036;2022-09-03T03:53:37;6.80;;;2.45;;
72427;SDS011;60419;48.880;18.036;2022-09-03T03:56:23;5.93;;;2.35;;
72427;SDS011;60419;48.880;18.036;2022-09-03T03:59:10;6.65;;;2.40;;
72427;SDS011;60419;48.880;18.036;2022-09-03T04:01:55;5.15;;;2.40;;
72427;SDS011;60419;48.880;18.036;2022-09-03T04:04:40;5.63;;;2.50;;
72427;SDS011;60419;48.880;18.036;2022-09-03T04:07:26;6.45;;;3.10;;
72427;SDS011;60419;48.880;18.036;2022-09-03T04:10:11;6.10;;;2.50;;
72427;SDS011;60419;48.880;18.036;2022-09-03T04:12:57;5.40;;;2.50;;
72427;SDS011;60419;48.880;18.036;2022-09-03T04:15:42;5.50;;;2.63;;
72427;SDS011;60419;48.880;18.036;2022-09-03T04:18:29;6.60;;;2.97;;
72427;SDS011;60419;48.880;18.036;2022-09-03T04:21:18;7.55;;;2.75;;
72427;SDS011;60419;48.880;18.036;2022-09-03T04:24:04;3.95;;;2.40;;
72427;SDS011;60419;48.880;18.036;2022-09-03T04:26:50;4.88;;;2.42;;
72427;SDS011;60419;48.880;18.036;2022-09-03T04:29:35;4.57;;;2.40;;
72427;SDS011;60419;48.880;18.036;2022-09-03T04:32:21;5.50;;;2.60;;
72427;SDS011;60419;48.880;18.036;2022-09-03T04:35:25;5.70;;;2.70;;
72427;SDS011;60419;48.880;18.036;2022-09-03T04:38:14;6.25;;;2.80;;
72427;SDS011;60419;48.880;18.036;2022-09-03T04:40:59;6.55;;;2.70;;
72427;SDS011;60419;48.880;18.036;2022-09-03T04:43:44;4.53;;;2.60;;
72427;SDS011;60419;48.880;18.036;2022-09-03T04:46:30;6.85;;;2.58;;
72427;SDS011;60419;48.880;18.036;2022-09-03T04:49:17;7.70;;;2.70;;
72427;SDS011;60419;48.880;18.036;2022-09-03T04:52:02;6.72;;;3.00;;
72427;SDS011;60419;48.880;18.036;2022-09-03T04:54:47;5.40;;;2.78;;
72427;SDS011;60419;48.880;18.036;2022-09-03T04:57:33;4.22;;;2.55;;
72427;SDS011;60419;48.880;18.036;2022-09-03T05:00:21;8.77;;;3.78;;
72427;SDS011;60419;48.880;18.036;2022-09-03T05:03:07;6.95;;;3.28;;
72427;SDS011;60419;48.880;18.036;2022-09-03T05:05:53;5.82;;;2.75;;
72427;SDS011;60419;48.880;18.036;2022-09-03T05:08:39;7.07;;;2.97;;
72427;SDS011;60419;48.880;18.036;2022-09-03T05:11:25;4.90;;;2.78;;
72427;SDS011;60419;48.880;18.036;2022-09-03T05:14:12;5.85;;;2.88;;
72427;SDS011;60419;48.880;18.036;2022-09-03T05:16:57;7.50;;;3.13;;
72427;SDS011;60419;48.880;18.036;2022-09-03T05:19:43;5.15;;;2.67;;
72427;SDS011;60419;48.880;18.036;2022-09-03T05:22:29;6.57;;;3.10;;
72427;SDS011;60419;48.880;18.036;2022-09-03T05:25:14;5.95;;;2.97;;
72427;SDS011;60419;48.880;18.036;2022-09-03T05:27:59;6.22;;;3.03;;
72427;SDS011;60419;48.880;18.036;2022-09-03T05:30:45;6.15;;;3.15;;
72427;SDS011;60419;48.880;18.036;2022-09-03T05:33:34;6.22;;;3.08;;
72427;SDS011;60419;48.880;18.036;2022-09-03T05:36:28;7.55;;;3.00;;
72427;SDS011;60419;48.880;18.036;2022-09-03T05:39:15;6.35;;;2.78;;
72427;SDS011;60419;48.880;18.036;2022-09-03T05:42:01;4.97;;;2.80;;
72427;SDS011;60419;48.880;18.036;2022-09-03T05:44:46;6.57;;;2.83;;
72427;SDS011;60419;48.880;18.036;2022-09-03T05:47:33;8.07;;;3.53;;
72427;SDS011;60419;48.880;18.036;2022-09-03T05:50:18;7.65;;;2.70;;
72427;SDS011;60419;48.880;18.036;2022-09-03T05:53:04;5.30;;;2.70;;
72427;SDS011;60419;48.880;18.036;2022-09-03T05:55:59;7.07;;;2.67;;
72427;SDS011;60419;48.880;18.036;2022-09-03T05:58:56;6.43;;;2.72;;
72427;SDS011;60419;48.880;18.036;2022-09-03T06:01:45;6.82;;;2.70;;
72427;SDS011;60419;48.880;18.036;2022-09-03T06:04:31;7.32;;;2.63;;
72427;SDS011;60419;48.880;18.036;2022-09-03T06:07:17;9.10;;;2.70;;
72427;SDS011;60419;48.880;18.036;2022-09-03T06:10:03;6.80;;;2.90;;
72427;SDS011;60419;48.880;18.036;2022-09-03T06:12:50;7.10;;;2.90;;
72427;SDS011;60419;48.880;18.036;2022-09-03T06:15:35;7.50;;;3.10;;
72427;SDS011;60419;48.880;18.036;2022-09-03T06:18:22;6.22;;;2.78;;
72427;SDS011;60419;48.880;18.036;2022-09-03T06:21:08;5.88;;;2.45;;
72427;SDS011;60419;48.880;18.036;2022-09-03T06:23:54;6.25;;;2.92;;
72427;SDS011;60419;48.880;18.036;2022-09-03T06:26:41;4.85;;;2.38;;
72427;SDS011;60419;48.880;18.036;2022-09-03T06:29:26;4.50;;;2.13;;
72427;SDS011;60419;48.880;18.036;2022-09-03T06:32:12;7.63;;;2.83;;
72427;SDS011;60419;48.880;18.036;2022-09-03T06:34:58;5.82;;;2.30;;
72427;SDS011;60419;48.880;18.036;2022-09-03T06:37:43;6.25;;;2.90;;
72427;SDS011;60419;48.880;18.036;2022-09-03T06:40:29;5.07;;;2.60;;
72427;SDS011;60419;48.880;18.036;2022-09-03T06:43:14;6.45;;;2.70;;
72427;SDS011;60419;48.880;18.036;2022-09-03T06:46:04;4.78;;;2.25;;
72427;SDS011;60419;48.880;18.036;2022-09-03T06:48:52;5.93;;;2.53;;
72427;SDS011;60419;48.880;18.036;2022-09-03T06:51:39;6.18;;;2.70;;
72427;SDS011;60419;48.880;18.036;2022-09-03T06:54:25;6.43;;;2.40;;
72427;SDS011;60419;48.880;18.036;2022-09-03T06:57:10;8.10;;;2.88;;
72427;SDS011;60419;48.880;18.036;2022-09-03T06:59:55;5.82;;;2.58;;
72427;SDS011;60419;48.880;18.036;2022-09-03T07:02:41;6.13;;;2.78;;
72427;SDS011;60419;48.880;18.036;2022-09-03T07:05:26;7.40;;;2.75;;
72427;SDS011;60419;48.880;18.036;2022-09-03T07:08:12;8.15;;;2.67;;
72427;SDS011;60419;48.880;18.036;2022-09-03T07:11:01;5.30;;;2.42;;
72427;SDS011;60419;48.880;18.036;2022-09-03T07:13:53;5.50;;;2.67;;
72427;SDS011;60419;48.880;18.036;2022-09-03T07:16:40;7.13;;;3.03;;
72427;SDS011;60419;48.880;18.036;2022-09-03T07:19:29;6.80;;;2.95;;
72427;SDS011;60419;48.880;18.036;2022-09-03T07:22:15;7.25;;;2.53;;
72427;SDS011;60419;48.880;18.036;2022-09-03T07:25:00;7.28;;;2.45;;
72427;SDS011;60419;48.880;18.036;2022-09-03T07:27:46;6.50;;;2.65;;
72427;SDS011;60419;48.880;18.036;2022-09-03T07:30:32;5.15;;;2.20;;
72427;SDS011;60419;48.880;18.036;2022-09-03T07:33:18;5.88;;;2.40;;
72427;SDS011;60419;48.880;18.036;2022-09-03T07:36:04;5.50;;;2.45;;
72427;SDS011;60419;48.880;18.036;2022-09-03T07:38:55;6.47;;;2.50;;
72427;SDS011;60419;48.880;18.036;2022-09-03T07:41:42;5.37;;;2.00;;
72427;SDS011;60419;48.880;18.036;2022-09-03T07:44:29;4.70;;;2.40;;
72427;SDS011;60419;48.880;18.036;2022-09-03T07:47:15;4.20;;;2.42;;
72427;SDS011;60419;48.880;18.036;2022-09-03T07:50:05;5.55;;;2.88;;
72427;SDS011;60419;48.880;18.036;2022-09-03T07:52:57;5.45;;;2.47;;
72427;SDS011;60419;48.880;18.036;2022-09-03T07:55:43;5.50;;;2.50;;
72427;SDS011;60419;48.880;18.036;2022-09-03T07:58:29;6.00;;;2.58;;
72427;SDS011;60419;48.880;18.036;2022-09-03T08:01:20;5.25;;;2.10;;
72427;SDS011;60419;48.880;18.036;2022-09-03T08:04:07;7.07;;;3.40;;
72427;SDS011;60419;48.880;18.036;2022-09-03T08:06:53;6.80;;;2.42;;
72427;SDS011;60419;48.880;18.036;2022-09-03T08:09:40;8.00;;;2.78;;
72427;SDS011;60419;48.880;18.036;2022-09-03T08:12:26;6.88;;;2.53;;
72427;SDS011;60419;48.880;18.036;2022-09-03T08:15:11;4.18;;;2.30;;
72427;SDS011;60419;48.880;18.036;2022-09-03T08:17:57;4.38;;;2.35;;
72427;SDS011;60419;48.880;18.036;2022-09-03T08:20:43;4.72;;;2.42;;
72427;SDS011;60419;48.880;18.036;2022-09-03T08:23:29;4.60;;;2.47;;
72427;SDS011;60419;48.880;18.036;2022-09-03T08:26:15;4.88;;;2.40;;
72427;SDS011;60419;48.880;18.036;2022-09-03T08:29:01;5.75;;;2.83;;
72427;SDS011;60419;48.880;18.036;2022-09-03T08:31:48;5.43;;;2.50;;
72427;SDS011;60419;48.880;18.036;2022-09-03T08:34:33;6.82;;;2.65;;
72427;SDS011;60419;48.880;18.036;2022-09-03T08:37:19;4.05;;;2.20;;
72427;SDS011;60419;48.880;18.036;2022-09-03T08:40:04;5.63;;;2.53;;
72427;SDS011;60419;48.880;18.036;2022-09-03T08:43:09;5.20;;;2.20;;
72427;SDS011;60419;48.880;18.036;2022-09-03T08:46:02;4.82;;;2.20;;
72427;SDS011;60419;48.880;18.036;2022-09-03T08:48:48;5.05;;;2.40;;
72427;SDS011;60419;48.880;18.036;2022-09-03T08:51:33;4.30;;;2.00;;
72427;SDS011;60419;48.880;18.036;2022-09-03T08:54:23;4.28;;;1.95;;
72427;SDS011;60419;48.880;18.036;2022-09-03T08:57:12;5.22;;;2.03;;
72427;SDS011;60419;48.880;18.036;2022-09-03T09:00:00;4.35;;;2.00;;
72427;SDS011;60419;48.880;18.036;2022-09-03T09:02:56;5.20;;;1.90;;
72427;SDS011;60419;48.880;18.036;2022-09-03T09:15:29;4.18;;;1.90;;
72427;SDS011;60419;48.880;18.036;2022-09-03T09:21:27;3.57;;;1.77;;
72427;SDS011;60419;48.880;18.036;2022-09-03T09:24:23;4.18;;;1.83;;
72427;SDS011;60419;48.880;18.036;2022-09-03T09:27:12;4.25;;;1.85;;
72427;SDS011;60419;48.880;18.036;2022-09-03T09:30:03;5.55;;;2.00;;
72427;SDS011;60419;48.880;18.036;2022-09-03T09:32:49;4.10;;;2.03;;
72427;SDS011;60419;48.880;18.036;2022-09-03T09:35:34;4.30;;;1.88;;
72427;SDS011;60419;48.880;18.036;2022-09-03T09:38:27;4.60;;;2.00;;
72427;SDS011;60419;48.880;18.036;2022-09-03T09:41:15;6.72;;;1.95;;
72427;SDS011;60419;48.880;18.036;2022-09-03T09:46:50;3.67;;;2.00;;
72427;SDS011;60419;48.880;18.036;2022-09-03T09:49:56;3.95;;;1.80;;
72427;SDS011;60419;48.880;18.036;2022-09-03T09:52:43;3.53;;;1.63;;
72427;SDS011;60419;48.880;18.036;2022-09-03T09:55:30;4.35;;;1.80;;
72427;SDS011;60419;48.880;18.036;2022-09-03T09:58:18;3.65;;;1.85;;
72427;SDS011;60419;48.880;18.036;2022-09-03T10:04:00;4.72;;;2.03;;
72427;SDS011;60419;48.880;18.036;2022-09-03T10:10:20;2.38;;;1.40;;
72427;SDS011;60419;48.880;18.036;2022-09-03T10:16:01;4.78;;;1.58;;
72427;SDS011;60419;48.880;18.036;2022-09-03T10:19:15;4.25;;;1.63;;
72427;SDS011;60419;48.880;18.036;2022-09-03T10:22:07;3.40;;;1.80;;
72427;SDS011;60419;48.880;18.036;2022-09-03T10:24:57;3.13;;;1.45;;
72427;SDS011;60419;48.880;18.036;2022-09-03T10:27:46;2.50;;;1.30;;
72427;SDS011;60419;48.880;18.036;2022-09-03T10:30:33;3.30;;;1.38;;
72427;SDS011;60419;48.880;18.036;2022-09-03T10:33:47;3.83;;;1.48;;
72427;SDS011;60419;48.880;18.036;2022-09-03T10:48:59;4.50;;;1.67;;
72427;SDS011;60419;48.880;18.036;2022-09-03T11:01:46;3.42;;;1.67;;
72427;SDS011;60419;48.880;18.036;2022-09-03T11:07:45;6.20;;;1.40;;
72427;SDS011;60419;48.880;18.036;2022-09-03T11:10:40;3.35;;;1.25;;
72427;SDS011;60419;48.880;18.036;2022-09-03T11:13:30;4.03;;;1.40;;
72427;SDS011;60419;48.880;18.036;2022-09-03T11:16:22;4.55;;;1.40;;
72427;SDS011;60419;48.880;18.036;2022-09-03T11:19:14;4.55;;;1.58;;
72427;SDS011;60419;48.880;18.036;2022-09-03T11:22:03;2.95;;;1.40;;
72427;SDS011;60419;48.880;18.036;2022-09-03T11:24:52;5.10;;;1.70;;
72427;SDS011;60419;48.880;18.036;2022-09-03T11:30:51;6.03;;;1.63;;
72427;SDS011;60419;48.880;18.036;2022-09-03T11:33:57;4.20;;;1.60;;
72427;SDS011;60419;48.880;18.036;2022-09-03T11:36:49;3.20;;;1.30;;
72427;SDS011;60419;48.880;18.036;2022-09-03T11:39:35;4.70;;;1.63;;
72427;SDS011;60419;48.880;18.036;2022-09-03T11:42:27;3.88;;;1.50;;
72427;SDS011;60419;48.880;18.036;2022-09-03T11:45:33;4.38;;;1.73;;
72427;SDS011;60419;48.880;18.036;2022-09-03T11:48:36;2.95;;;1.50;;
72427;SDS011;60419;48.880;18.036;2022-09-03T11:51:31;3.53;;;1.35;;
72427;SDS011;60419;48.880;18.036;2022-09-03T11:57:14;3.78;;;1.40;;
72427;SDS011;60419;48.880;18.036;2022-09-03T12:00:14;3.78;;;1.73;;
72427;SDS011;60419;48.880;18.036;2022-09-03T12:03:06;3.25;;;1.67;;
72427;SDS011;60419;48.880;18.036;2022-09-03T12:06:19;2.67;;;1.33;;
72427;SDS011;60419;48.880;18.036;2022-09-03T12:12:18;3.78;;;1.60;;
72427;SDS011;60419;48.880;18.036;2022-09-03T12:21:09;3.53;;;1.80;;
72427;SDS011;60419;48.880;18.036;2022-09-03T12:23:55;4.03;;;1.80;;
72427;SDS011;60419;48.880;18.036;2022-09-03T12:26:41;8.43;;;1.70;;
72427;SDS011;60419;48.880;18.036;2022-09-03T12:29:28;8.38;;;1.60;;
72427;SDS011;60419;48.880;18.036;2022-09-03T12:32:15;2.33;;;1.25;;
72427;SDS011;60419;48.880;18.036;2022-09-03T12:35:09;3.83;;;1.52;;
72427;SDS011;60419;48.880;18.036;2022-09-03T12:38:02;3.30;;;1.50;;
72427;SDS011;60419;48.880;18.036;2022-09-03T12:40:48;3.25;;;1.30;;
72427;SDS011;60419;48.880;18.036;2022-09-03T12:43:33;2.97;;;1.33;;
72427;SDS011;60419;48.880;18.036;2022-09-03T12:46:21;2.95;;;1.50;;
72427;SDS011;60419;48.880;18.036;2022-09-03T12:49:13;4.55;;;1.50;;
72427;SDS011;60419;48.880;18.036;2022-09-03T12:52:04;4.18;;;1.60;;
72427;SDS011;60419;48.880;18.036;2022-09-03T12:55:24;3.08;;;1.75;;
72427;SDS011;60419;48.880;18.036;2022-09-03T13:01:20;3.05;;;1.48;;
72427;SDS011;60419;48.880;18.036;2022-09-03T13:04:18;3.05;;;1.60;;
72427;SDS011;60419;48.880;18.036;2022-09-03T13:07:13;7.07;;;3.40;;
72427;SDS011;60419;48.880;18.036;2022-09-03T13:10:07;7.10;;;3.30;;
72427;SDS011;60419;48.880;18.036;2022-09-03T13:13:26;3.33;;;1.60;;
72427;SDS011;60419;48.880;18.036;2022-09-03T13:25:43;3.45;;;1.55;;
72427;SDS011;60419;48.880;18.036;2022-09-03T13:31:35;3.17;;;1.45;;
72427;SDS011;60419;48.880;18.036;2022-09-03T13:34:31;2.15;;;1.13;;
72427;SDS011;60419;48.880;18.036;2022-09-03T13:40:26;2.47;;;1.35;;
72427;SDS011;60419;48.880;18.036;2022-09-03T13:43:21;3.00;;;1.30;;
72427;SDS011;60419;48.880;18.036;2022-09-03T13:49:42;3.33;;;1.60;;
72427;SDS011;60419;48.880;18.036;2022-09-03T13:53:07;3.63;;;1.10;;
72427;SDS011;60419;48.880;18.036;2022-09-03T13:56:02;4.05;;;1.27;;
72427;SDS011;60419;48.880;18.036;2022-09-03T13:59:17;2.28;;;1.23;;
72427;SDS011;60419;48.880;18.036;2022-09-03T14:05:12;4.22;;;1.30;;
72427;SDS011;60419;48.880;18.036;2022-09-03T14:08:04;4.63;;;1.40;;
72427;SDS011;60419;48.880;18.036;2022-09-03T14:14:05;3.67;;;1.40;;
72427;SDS011;60419;48.880;18.036;2022-09-03T14:17:02;3.35;;;1.40;;
72427;SDS011;60419;48.880;18.036;2022-09-03T14:26:02;3.08;;;1.20;;
72427;SDS011;60419;48.880;18.036;2022-09-03T14:28:56;3.67;;;1.10;;
72427;SDS011;60419;48.880;18.036;2022-09-03T14:31:55;3.42;;;1.40;;
72427;SDS011;60419;48.880;18.036;2022-09-03T14:41:05;3.80;;;1.90;;
72427;SDS011;60419;48.880;18.036;2022-09-03T14:50:20;3.95;;;1.17;;
72427;SDS011;60419;48.880;18.036;2022-09-03T14:53:24;2.80;;;1.70;;
72427;SDS011;60419;48.880;18.036;2022-09-03T15:11:31;3.72;;;1.20;;
72427;SDS011;60419;48.880;18.036;2022-09-03T15:17:32;3.45;;;1.70;;
72427;SDS011;60419;48.880;18.036;2022-09-03T15:20:31;5.75;;;1.60;;
72427;SDS011;60419;48.880;18.036;2022-09-03T15:26:30;3.80;;;1.30;;
72427;SDS011;60419;48.880;18.036;2022-09-03T15:36:37;3.95;;;1.50;;
72427;SDS011;60419;48.880;18.036;2022-09-03T15:39:08;3.17;;;1.40;;
72427;SDS011;60419;48.880;18.036;2022-09-03T15:41:59;3.10;;;1.25;;
72427;SDS011;60419;48.880;18.036;2022-09-03T15:44:55;2.70;;;1.30;;
72427;SDS011;60419;48.880;18.036;2022-09-03T15:47:52;3.03;;;1.40;;
72427;SDS011;60419;48.880;18.036;2022-09-03T15:50:51;2.85;;;1.55;;
72427;SDS011;60419;48.880;18.036;2022-09-03T15:56:33;2.78;;;1.20;;
72427;SDS011;60419;48.880;18.036;2022-09-03T15:59:41;3.92;;;1.55;;
72427;SDS011;60419;48.880;18.036;2022-09-03T16:05:56;3.20;;;1.55;;
72427;SDS011;60419;48.880;18.036;2022-09-03T16:08:51;2.58;;;1.20;;
72427;SDS011;60419;48.880;18.036;2022-09-03T16:11:58;1.83;;;1.15;;
72427;SDS011;60419;48.880;18.036;2022-09-03T16:21:13;7.15;;;1.30;;
72427;SDS011;60419;48.880;18.036;2022-09-03T16:24:23;4.20;;;1.15;;
72427;SDS011;60419;48.880;18.036;2022-09-03T16:27:24;3.00;;;1.13;;
72427;SDS011;60419;48.880;18.036;2022-09-03T16:30:21;4.45;;;1.33;;
72427;SDS011;60419;48.880;18.036;2022-09-03T16:45:11;3.33;;;1.52;;
72427;SDS011;60419;48.880;18.036;2022-09-03T16:51:31;4.32;;;1.98;;
72427;SDS011;60419;48.880;18.036;2022-09-03T17:03:56;3.65;;;1.67;;
72427;SDS011;60419;48.880;18.036;2022-09-03T17:12:50;3.13;;;1.67;;
72427;SDS011;60419;48.880;18.036;2022-09-03T17:18:49;6.68;;;2.85;;
72427;SDS011;60419;48.880;18.036;2022-09-03T17:24:54;8.30;;;4.50;;
72427;SDS011;60419;48.880;18.036;2022-09-03T17:28:07;5.47;;;3.25;;
72427;SDS011;60419;48.880;18.036;2022-09-03T17:40:55;3.75;;;1.83;;
72427;SDS011;60419;48.880;18.036;2022-09-03T17:44:04;3.45;;;1.80;;
72427;SDS011;60419;48.880;18.036;2022-09-03T17:50:22;6.63;;;2.17;;
72427;SDS011;60419;48.880;18.036;2022-09-03T17:53:24;7.30;;;2.60;;
72427;SDS011;60419;48.880;18.036;2022-09-03T17:56:21;6.15;;;2.60;;
72427;SDS011;60419;48.880;18.036;2022-09-03T17:59:14;7.72;;;2.70;;
72427;SDS011;60419;48.880;18.036;2022-09-03T18:02:09;9.43;;;2.58;;
72427;SDS011;60419;48.880;18.036;2022-09-03T18:05:16;5.18;;;2.58;;
72427;SDS011;60419;48.880;18.036;2022-09-03T18:14:05;6.05;;;2.55;;
72427;SDS011;60419;48.880;18.036;2022-09-03T18:17:11;8.05;;;2.60;;
72427;SDS011;60419;48.880;18.036;2022-09-03T18:20:06;5.53;;;2.65;;
72427;SDS011;60419;48.880;18.036;2022-09-03T18:23:22;5.72;;;2.53;;
72427;SDS011;60419;48.880;18.036;2022-09-03T18:26:33;4.95;;;2.28;;
72427;SDS011;60419;48.880;18.036;2022-09-03T18:29:45;7.32;;;2.70;;
72427;SDS011;60419;48.880;18.036;2022-09-03T18:32:52;6.05;;;2.65;;
72427;SDS011;60419;48.880;18.036;2022-09-03T18:35:57;6.90;;;2.83;;
72427;SDS011;60419;48.880;18.036;2022-09-03T18:39:05;5.53;;;2.50;;
72427;SDS011;60419;48.880;18.036;2022-09-03T18:45:48;6.03;;;2.67;;
72427;SDS011;60419;48.880;18.036;2022-09-03T18:49:14;4.82;;;2.17;;
72427;SDS011;60419;48.880;18.036;2022-09-03T18:52:58;6.38;;;2.30;;
72427;SDS011;60419;48.880;18.036;2022-09-03T18:56:13;4.95;;;2.00;;
72427;SDS011;60419;48.880;18.036;2022-09-03T18:59:30;3.72;;;1.90;;
72427;SDS011;60419;48.880;18.036;2022-09-03T19:06:43;4.60;;;2.33;;
72427;SDS011;60419;48.880;18.036;2022-09-03T19:10:25;4.60;;;2.38;;
72427;SDS011;60419;48.880;18.036;2022-09-03T19:13:36;5.70;;;2.58;;
72427;SDS011;60419;48.880;18.036;2022-09-03T19:16:43;5.75;;;2.67;;
72427;SDS011;60419;48.880;18.036;2022-09-03T19:23:18;4.00;;;2.22;;
72427;SDS011;60419;48.880;18.036;2022-09-03T19:26:27;6.03;;;3.13;;
72427;SDS011;60419;48.880;18.036;2022-09-03T19:46:56;5.63;;;2.78;;
72427;SDS011;60419;48.880;18.036;2022-09-03T19:50:04;9.00;;;3.20;;
72427;SDS011;60419;48.880;18.036;2022-09-03T19:53:09;6.20;;;3.00;;
72427;SDS011;60419;48.880;18.036;2022-09-03T19:56:18;6.13;;;2.60;;
72427;SDS011;60419;48.880;18.036;2022-09-03T19:59:32;5.38;;;2.80;;
72427;SDS011;60419;48.880;18.036;2022-09-03T20:02:39;7.70;;;3.00;;
72427;SDS011;60419;48.880;18.036;2022-09-03T20:05:44;6.40;;;2.90;;
72427;SDS011;60419;48.880;18.036;2022-09-03T20:08:48;7.03;;;3.13;;
72427;SDS011;60419;48.880;18.036;2022-09-03T20:11:55;9.73;;;2.50;;
72427;SDS011;60419;48.880;18.036;2022-09-03T20:14:42;8.35;;;3.30;;
72427;SDS011;60419;48.880;18.036;2022-09-03T20:17:32;5.40;;;2.10;;
72427;SDS011;60419;48.880;18.036;2022-09-03T20:24:00;5.20;;;2.63;;
72427;SDS011;60419;48.880;18.036;2022-09-03T20:26:54;7.85;;;2.60;;
72427;SDS011;60419;48.880;18.036;2022-09-03T20:29:55;6.07;;;2.63;;
72427;SDS011;60419;48.880;18.036;2022-09-03T20:38:53;5.07;;;2.75;;
72427;SDS011;60419;48.880;18.036;2022-09-03T20:42:12;11.23;;;2.97;;
72427;SDS011;60419;48.880;18.036;2022-09-03T20:45:21;4.28;;;2.60;;
72427;SDS011;60419;48.880;18.036;2022-09-03T20:48:18;4.13;;;2.50;;
72427;SDS011;60419;48.880;18.036;2022-09-03T20:51:58;6.97;;;2.45;;
72427;SDS011;60419;48.880;18.036;2022-09-03T20:57:23;7.00;;;2.95;;
72427;SDS011;60419;48.880;18.036;2022-09-03T21:00:20;5.53;;;2.90;;
72427;SDS011;60419;48.880;18.036;2022-09-03T21:03:15;6.25;;;3.70;;
72427;SDS011;60419;48.880;18.036;2022-09-03T21:09:09;8.23;;;3.60;;
72427;SDS011;60419;48.880;18.036;2022-09-03T21:15:21;6.78;;;3.60;;
72427;SDS011;60419;48.880;18.036;2022-09-03T21:24:19;9.07;;;3.80;;
72427;SDS011;60419;48.880;18.036;2022-09-03T21:27:08;8.13;;;3.63;;
72427;SDS011;60419;48.880;18.036;2022-09-03T21:30:00;7.55;;;3.80;;
72427;SDS011;60419;48.880;18.036;2022-09-03T21:32:53;6.85;;;3.45;;
72427;SDS011;60419;48.880;18.036;2022-09-03T21:38:54;10.13;;;4.53;;
72427;SDS011;60419;48.880;18.036;2022-09-03T21:48:09;7.45;;;4.20;;
72427;SDS011;60419;48.880;18.036;2022-09-03T21:51:01;8.35;;;3.92;;
72427;SDS011;60419;48.880;18.036;2022-09-03T22:02:52;5.90;;;3.50;;
72427;SDS011;60419;48.880;18.036;2022-09-03T22:08:46;6.95;;;3.97;;
72427;SDS011;60419;48.880;18.036;2022-09-03T22:14:58;6.78;;;3.90;;
72427;SDS011;60419;48.880;18.036;2022-09-03T22:18:03;7.60;;;4.47;;
72427;SDS011;60419;48.880;18.036;2022-09-03T22:29:50;11.88;;;4.75;;
72427;SDS011;60419;48.880;18.036;2022-09-03T22:33:36;9.18;;;4.82;;
72427;SDS011;60419;48.880;18.036;2022-09-03T22:48:11;7.57;;;4.10;;
72427;SDS011;60419;48.880;18.036;2022-09-03T22:51:06;7.60;;;4.10;;
72427;SDS011;60419;48.880;18.036;2022-09-03T22:56:41;7.90;;;4.60;;
72427;SDS011;60419;48.880;18.036;2022-09-03T22:59:32;7.30;;;4.28;;
72427;SDS011;60419;48.880;18.036;2022-09-03T23:02:29;6.60;;;4.23;;
72427;SDS011;60419;48.880;18.036;2022-09-03T23:08:32;8.60;;;4.30;;
72427;SDS011;60419;48.880;18.036;2022-09-03T23:11:24;9.73;;;4.38;;
72427;SDS011;60419;48.880;18.036;2022-09-03T23:17:42;9.23;;;4.30;;
72427;SDS011;60419;48.880;18.036;2022-09-03T23:20:32;6.97;;;3.97;;
72427;SDS011;60419;48.880;18.036;2022-09-03T23:23:23;7.35;;;4.20;;
72427;SDS011;60419;48.880;18.036;2022-09-03T23:26:28;8.80;;;4.43;;
72427;SDS011;60419;48.880;18.036;2022-09-03T23:29:38;8.68;;;4.20;;